sensor_id;sensor_type;location;lat;lon;timestamp;pressure;altitude;pressure_sealevel;temperature;humidity
30724;BME280;17473;52.286;20.930;2023-06-14T00:01:35;100450.84;;;13.67;100.00
30724;BME280;17473;52.286;20.930;2023-06-14T00:04:02;100462.09;;;13.56;100.00
30724;BME280;17473;52.286;20.930;2023-06-14T00:06:31;100454.31;;;13.63;100.00
30724;BME280;17473;52.286;20.930;2023-06-14T00:09:00;100451.50;;;13.56;100.00
30724;BME280;17473;52.286;20.930;2023-06-14T00:11:28;100455.94;;;13.57;100.00
30724;BME280;17473;52.286;20.930;2023-06-14T00:13:56;100453.19;;;13.54;100.00
30724;BME280;17473;52.286;20.930;2023-06-14T00:16:23;100453.19;;;13.54;100.00
30724;BME280;17473;52.286;20.930;2023-06-14T00:18:51;100449.66;;;13.54;100.00
30724;BME280;17473;52.286;20.930;2023-06-14T00:21:21;100442.69;;;13.59;100.00
30724;BME280;17473;52.286;20.930;2023-06-14T00:23:49;100435.56;;;13.55;100.00
30724;BME280;17473;52.286;20.930;2023-06-14T00:26:16;100435.00;;;13.70;100.00
30724;BME280;17473;52.286;20.930;2023-06-14T00:28:44;100439.13;;;13.57;100.00
30724;BME280;17473;52.286;20.930;2023-06-14T00:31:11;100434.84;;;13.64;100.00
30724;BME280;17473;52.286;20.930;2023-06-14T00:33:38;100433.00;;;13.59;100.00
30724;BME280;17473;52.286;20.930;2023-06-14T00:36:05;100434.63;;;13.54;100.00
30724;BME280;17473;52.286;20.930;2023-06-14T00:38:32;100432.88;;;13.53;100.00
30724;BME280;17473;52.286;20.930;2023-06-14T00:41:00;100429.34;;;13.54;100.00
30724;BME280;17473;52.286;20.930;2023-06-14T00:43:27;100425.78;;;13.54;100.00
30724;BME280;17473;52.286;20.930;2023-06-14T00:45:54;100429.41;;;13.57;100.00
30724;BME280;17473;52.286;20.930;2023-06-14T00:48:22;100434.47;;;13.46;100.00
30724;BME280;17473;52.286;20.930;2023-06-14T00:50:50;100425.78;;;13.52;100.00
30724;BME280;17473;52.286;20.930;2023-06-14T00:53:20;100426.69;;;13.54;100.00
30724;BME280;17473;52.286;20.930;2023-06-14T00:55:49;100427.50;;;13.52;100.00
30724;BME280;17473;52.286;20.930;2023-06-14T00:58:17;100429.41;;;13.57;100.00
30724;BME280;17473;52.286;20.930;2023-06-14T01:00:44;100422.38;;;13.59;100.00
30724;BME280;17473;52.286;20.930;2023-06-14T01:03:12;100419.75;;;13.61;100.00
30724;BME280;17473;52.286;20.930;2023-06-14T01:05:41;100428.69;;;13.65;100.00
30724;BME280;17473;52.286;20.930;2023-06-14T01:08:27;100437.16;;;13.48;100.00
30724;BME280;17473;52.286;20.930;2023-06-14T01:11:07;100430.44;;;13.64;100.00
30724;BME280;17473;52.286;20.930;2023-06-14T01:13:40;100429.38;;;13.56;100.00
30724;BME280;17473;52.286;20.930;2023-06-14T01:16:10;100423.25;;;13.58;100.00
30724;BME280;17473;52.286;20.930;2023-06-14T01:18:38;100430.50;;;13.67;100.00
30724;BME280;17473;52.286;20.930;2023-06-14T01:21:05;100432.25;;;13.65;100.00
30724;BME280;17473;52.286;20.930;2023-06-14T01:23:33;100434.03;;;13.66;100.00
30724;BME280;17473;52.286;20.930;2023-06-14T01:26:01;100427.78;;;13.64;100.00
30724;BME280;17473;52.286;20.930;2023-06-14T01:28:31;100431.53;;;13.74;100.00
30724;BME280;17473;52.286;20.930;2023-06-14T01:31:02;100436.84;;;13.74;100.00
30724;BME280;17473;52.286;20.930;2023-06-14T01:33:33;100429.50;;;13.60;100.00
30724;BME280;17473;52.286;20.930;2023-06-14T01:36:02;100426.00;;;13.63;100.00
30724;BME280;17473;52.286;20.930;2023-06-14T01:38:30;100420.78;;;13.68;100.00
30724;BME280;17473;52.286;20.930;2023-06-14T01:40:58;100425.91;;;13.60;100.00
30724;BME280;17473;52.286;20.930;2023-06-14T01:43:27;100432.19;;;13.64;100.00
30724;BME280;17473;52.286;20.930;2023-06-14T01:45:57;100426.09;;;13.66;100.00
30724;BME280;17473;52.286;20.930;2023-06-14T01:48:26;100428.84;;;13.71;100.00
30724;BME280;17473;52.286;20.930;2023-06-14T01:50:53;100428.69;;;13.65;100.00
30724;BME280;17473;52.286;20.930;2023-06-14T01:53:21;100427.72;;;13.61;100.00
30724;BME280;17473;52.286;20.930;2023-06-14T01:55:48;100424.81;;;13.49;100.00
30724;BME280;17473;52.286;20.930;2023-06-14T01:58:16;100421.81;;;13.35;100.00
30724;BME280;17473;52.286;20.930;2023-06-14T02:00:43;100421.84;;;13.38;100.00
30724;BME280;17473;52.286;20.930;2023-06-14T02:03:11;100411.50;;;13.47;100.00
30724;BME280;17473;52.286;20.930;2023-06-14T02:05:39;100407.91;;;13.45;100.00
30724;BME280;17473;52.286;20.930;2023-06-14T02:08:07;100407.22;;;13.54;100.00
30724;BME280;17473;52.286;20.930;2023-06-14T02:10:34;100409.91;;;13.55;100.00
30724;BME280;17473;52.286;20.930;2023-06-14T02:13:03;100400.25;;;13.59;100.00
30724;BME280;17473;52.286;20.930;2023-06-14T02:15:30;100402.13;;;13.63;100.00
30724;BME280;17473;52.286;20.930;2023-06-14T02:18:02;100408.59;;;13.76;100.00
30724;BME280;17473;52.286;20.930;2023-06-14T02:20:30;100408.00;;;13.91;100.00
30724;BME280;17473;52.286;20.930;2023-06-14T02:22:57;100412.38;;;13.87;100.00
30724;BME280;17473;52.286;20.930;2023-06-14T02:25:24;100422.16;;;13.90;100.00
30724;BME280;17473;52.286;20.930;2023-06-14T02:27:55;100421.13;;;13.83;100.00
30724;BME280;17473;52.286;20.930;2023-06-14T02:30:22;100413.06;;;13.78;100.00
30724;BME280;17473;52.286;20.930;2023-06-14T02:32:50;100409.47;;;13.76;100.00
30724;BME280;17473;52.286;20.930;2023-06-14T02:35:18;100412.19;;;13.80;100.00
30724;BME280;17473;52.286;20.930;2023-06-14T02:37:45;100414.78;;;13.76;100.00
30724;BME280;17473;52.286;20.930;2023-06-14T02:40:12;100417.22;;;13.67;100.00
30724;BME280;17473;52.286;20.930;2023-06-14T02:42:40;100415.59;;;13.72;100.00
30724;BME280;17473;52.286;20.930;2023-06-14T02:45:08;100407.63;;;13.72;100.00
30724;BME280;17473;52.286;20.930;2023-06-14T02:47:35;100416.34;;;13.67;100.00
30724;BME280;17473;52.286;20.930;2023-06-14T02:50:03;100406.72;;;13.72;100.00
30724;BME280;17473;52.286;20.930;2023-06-14T02:52:30;100405.25;;;13.86;100.00
30724;BME280;17473;52.286;20.930;2023-06-14T02:55:00;100399.09;;;13.87;100.00
30724;BME280;17473;52.286;20.930;2023-06-14T02:57:27;100403.66;;;13.95;100.00
30724;BME280;17473;52.286;20.930;2023-06-14T02:59:54;100400.06;;;13.92;100.00
30724;BME280;17473;52.286;20.930;2023-06-14T03:02:21;100395.53;;;13.87;100.00
30724;BME280;17473;52.286;20.930;2023-06-14T03:04:49;100399.00;;;13.83;100.00
30724;BME280;17473;52.286;20.930;2023-06-14T03:07:16;100396.28;;;13.81;100.00
30724;BME280;17473;52.286;20.930;2023-06-14T03:09:48;100397.28;;;13.85;100.00
30724;BME280;17473;52.286;20.930;2023-06-14T03:12:15;100398.28;;;13.91;100.00
30724;BME280;17473;52.286;20.930;2023-06-14T03:14:42;100399.19;;;13.92;100.00
30724;BME280;17473;52.286;20.930;2023-06-14T03:17:10;100399.31;;;13.98;100.00
30724;BME280;17473;52.286;20.930;2023-06-14T03:19:37;100398.34;;;13.95;100.00
30724;BME280;17473;52.286;20.930;2023-06-14T03:22:04;100398.44;;;13.99;100.00
30724;BME280;17473;52.286;20.930;2023-06-14T03:24:32;100404.13;;;14.18;100.00
30724;BME280;17473;52.286;20.930;2023-06-14T03:27:04;100403.81;;;14.02;100.00
30724;BME280;17473;52.286;20.930;2023-06-14T03:29:31;100399.09;;;13.87;100.00
30724;BME280;17473;52.286;20.930;2023-06-14T03:32:02;100399.31;;;13.98;100.00
30724;BME280;17473;52.286;20.930;2023-06-14T03:34:30;100400.06;;;13.91;100.00
30724;BME280;17473;52.286;20.930;2023-06-14T03:36:57;100402.59;;;13.85;100.00
30724;BME280;17473;52.286;20.930;2023-06-14T03:39:24;100404.22;;;13.78;100.00
30724;BME280;17473;52.286;20.930;2023-06-14T03:41:51;100393.75;;;13.86;100.00
30724;BME280;17473;52.286;20.930;2023-06-14T03:44:19;100406.88;;;13.78;100.00
30724;BME280;17473;52.286;20.930;2023-06-14T03:46:46;100396.38;;;13.86;100.00
30724;BME280;17473;52.286;20.930;2023-06-14T03:49:14;100391.06;;;13.84;100.00
30724;BME280;17473;52.286;20.930;2023-06-14T03:51:43;100392.97;;;13.91;100.00
30724;BME280;17473;52.286;20.930;2023-06-14T03:54:10;100393.13;;;13.98;100.00
30724;BME280;17473;52.286;20.930;2023-06-14T03:56:57;100397.78;;;14.09;100.00
30724;BME280;17473;52.286;20.930;2023-06-14T03:59:24;100396.03;;;14.12;100.00
30724;BME280;17473;52.286;20.930;2023-06-14T04:01:53;100404.03;;;14.13;100.00
30724;BME280;17473;52.286;20.930;2023-06-14T04:04:20;100404.88;;;14.11;100.00
30724;BME280;17473;52.286;20.930;2023-06-14T04:06:48;100400.56;;;14.17;100.00
30724;BME280;17473;52.286;20.930;2023-06-14T04:09:15;100408.59;;;14.20;100.00
30724;BME280;17473;52.286;20.930;2023-06-14T04:11:42;100409.00;;;14.42;100.00
30724;BME280;17473;52.286;20.930;2023-06-14T04:14:09;100402.00;;;14.47;100.00
30724;BME280;17473;52.286;20.930;2023-06-14T04:16:37;100411.78;;;14.48;100.00
30724;BME280;17473;52.286;20.930;2023-06-14T04:19:04;100413.75;;;14.62;100.00
30724;BME280;17473;52.286;20.930;2023-06-14T04:21:31;100409.34;;;14.62;100.00
30724;BME280;17473;52.286;20.930;2023-06-14T04:24:02;100415.53;;;14.60;100.00
30724;BME280;17473;52.286;20.930;2023-06-14T04:26:29;100410.94;;;14.52;100.00
30724;BME280;17473;52.286;20.930;2023-06-14T04:28:57;100405.13;;;14.72;100.00
30724;BME280;17473;52.286;20.930;2023-06-14T04:31:30;100408.50;;;14.63;100.00
30724;BME280;17473;52.286;20.930;2023-06-14T04:34:00;100408.50;;;14.65;100.00
30724;BME280;17473;52.286;20.930;2023-06-14T04:36:27;100410.94;;;14.52;100.00
30724;BME280;17473;52.286;20.930;2023-06-14T04:38:54;100411.22;;;14.66;100.00
30724;BME280;17473;52.286;20.930;2023-06-14T04:41:22;100409.47;;;14.67;100.00
30724;BME280;17473;52.286;20.930;2023-06-14T04:43:49;100401.66;;;14.76;100.00
30724;BME280;17473;52.286;20.930;2023-06-14T04:46:17;100397.22;;;14.75;100.00
30724;BME280;17473;52.286;20.930;2023-06-14T04:48:44;100398.91;;;14.70;100.00
30724;BME280;17473;52.286;20.930;2023-06-14T04:51:12;100400.63;;;14.68;100.00
30724;BME280;17473;52.286;20.930;2023-06-14T04:53:40;100397.34;;;14.83;100.00
30724;BME280;17473;52.286;20.930;2023-06-14T04:56:07;100407.06;;;14.82;100.00
30724;BME280;17473;52.286;20.930;2023-06-14T04:58:34;100401.97;;;14.96;100.00
30724;BME280;17473;52.286;20.930;2023-06-14T05:01:01;100404.56;;;14.92;100.00
30724;BME280;17473;52.286;20.930;2023-06-14T05:03:29;100402.75;;;14.89;100.00
30724;BME280;17473;52.286;20.930;2023-06-14T05:05:57;100405.34;;;14.84;100.00
30724;BME280;17473;52.286;20.930;2023-06-14T05:08:24;100413.44;;;14.92;100.00
30724;BME280;17473;52.286;20.930;2023-06-14T05:10:52;100416.06;;;14.91;100.00
30724;BME280;17473;52.286;20.930;2023-06-14T05:13:19;100422.38;;;14.96;100.00
30724;BME280;17473;52.286;20.930;2023-06-14T05:15:48;100419.94;;;15.11;100.00
30724;BME280;17473;52.286;20.930;2023-06-14T05:18:16;100424.13;;;14.95;100.00
30724;BME280;17473;52.286;20.930;2023-06-14T05:20:43;100419.72;;;14.97;100.00
30724;BME280;17473;52.286;20.930;2023-06-14T05:23:11;100419.72;;;14.97;100.00
30724;BME280;17473;52.286;20.930;2023-06-14T05:25:46;100419.78;;;15.00;100.00
30724;BME280;17473;52.286;20.930;2023-06-14T05:28:13;100424.34;;;15.08;100.00
30724;BME280;17473;52.286;20.930;2023-06-14T05:30:40;100434.03;;;15.04;100.00
30724;BME280;17473;52.286;20.930;2023-06-14T05:33:08;100431.28;;;14.99;100.00
30724;BME280;17473;52.286;20.930;2023-06-14T05:35:35;100430.59;;;15.11;100.00
30724;BME280;17473;52.286;20.930;2023-06-14T05:38:02;100428.78;;;15.09;100.00
30724;BME280;17473;52.286;20.930;2023-06-14T05:40:29;100435.47;;;15.40;99.90
30724;BME280;17473;52.286;20.930;2023-06-14T05:42:56;100423.63;;;15.20;99.80
30724;BME280;17473;52.286;20.930;2023-06-14T05:45:24;100429.81;;;15.18;100.00
30724;BME280;17473;52.286;20.930;2023-06-14T05:47:51;100431.81;;;15.35;99.88
30724;BME280;17473;52.286;20.930;2023-06-14T05:50:21;100438.94;;;15.34;98.58
30724;BME280;17473;52.286;20.930;2023-06-14T05:52:48;100436.28;;;15.38;98.74
30724;BME280;17473;52.286;20.930;2023-06-14T05:55:16;100434.81;;;15.55;97.15
30724;BME280;17473;52.286;20.930;2023-06-14T05:57:44;100436.72;;;15.67;96.80
30724;BME280;17473;52.286;20.930;2023-06-14T06:00:12;100434.00;;;15.62;97.37
30724;BME280;17473;52.286;20.930;2023-06-14T06:02:44;100432.31;;;15.69;98.51
30724;BME280;17473;52.286;20.930;2023-06-14T06:05:13;100429.69;;;15.72;97.14
30724;BME280;17473;52.286;20.930;2023-06-14T06:07:42;100430.59;;;15.73;97.74
30724;BME280;17473;52.286;20.930;2023-06-14T06:10:13;100436.16;;;15.87;94.87
30724;BME280;17473;52.286;20.930;2023-06-14T06:12:42;100437.81;;;15.83;96.05
30724;BME280;17473;52.286;20.930;2023-06-14T06:15:09;100435.22;;;15.85;94.98
30724;BME280;17473;52.286;20.930;2023-06-14T06:17:40;100430.63;;;15.74;96.03
30724;BME280;17473;52.286;20.930;2023-06-14T06:20:23;100430.66;;;15.77;95.97
30724;BME280;17473;52.286;20.930;2023-06-14T06:23:00;100419.53;;;16.08;95.56
30724;BME280;17473;52.286;20.930;2023-06-14T06:25:28;100428.56;;;16.24;95.49
30724;BME280;17473;52.286;20.930;2023-06-14T06:27:55;100433.69;;;16.05;95.27
30724;BME280;17473;52.286;20.930;2023-06-14T06:30:25;100435.53;;;16.09;95.73
30724;BME280;17473;52.286;20.930;2023-06-14T06:32:53;100434.59;;;16.07;96.60
30724;BME280;17473;52.286;20.930;2023-06-14T06:35:20;100440.84;;;16.08;97.33
30724;BME280;17473;52.286;20.930;2023-06-14T06:37:48;100439.31;;;16.30;97.32
30724;BME280;17473;52.286;20.930;2023-06-14T06:40:15;100441.06;;;16.28;96.40
30724;BME280;17473;52.286;20.930;2023-06-14T06:42:42;100443.56;;;16.14;96.28
30724;BME280;17473;52.286;20.930;2023-06-14T06:45:09;100452.72;;;16.38;95.17
30724;BME280;17473;52.286;20.930;2023-06-14T06:47:37;100450.91;;;16.37;93.00
30724;BME280;17473;52.286;20.930;2023-06-14T06:50:04;100447.31;;;16.32;91.45
30724;BME280;17473;52.286;20.930;2023-06-14T06:52:33;100453.69;;;16.45;93.96
30724;BME280;17473;52.286;20.930;2023-06-14T06:55:00;100453.72;;;16.49;94.72
30724;BME280;17473;52.286;20.930;2023-06-14T06:57:27;100449.06;;;16.26;94.54
30724;BME280;17473;52.286;20.930;2023-06-14T06:59:57;100448.09;;;16.21;95.69
30724;BME280;17473;52.286;20.930;2023-06-14T07:02:24;100446.34;;;16.23;97.58
30724;BME280;17473;52.286;20.930;2023-06-14T07:04:51;100451.69;;;16.25;97.01
30724;BME280;17473;52.286;20.930;2023-06-14T07:07:18;100450.91;;;16.34;96.41
30724;BME280;17473;52.286;20.930;2023-06-14T07:09:45;100444.75;;;16.41;96.13
30724;BME280;17473;52.286;20.930;2023-06-14T07:12:12;100433.16;;;16.36;96.43
30724;BME280;17473;52.286;20.930;2023-06-14T07:14:40;100443.88;;;16.42;95.94
30724;BME280;17473;52.286;20.930;2023-06-14T07:17:07;100448.44;;;16.52;95.11
30724;BME280;17473;52.286;20.930;2023-06-14T07:19:34;100443.13;;;16.54;94.81
30724;BME280;17473;52.286;20.930;2023-06-14T07:22:01;100449.50;;;16.70;94.15
30724;BME280;17473;52.286;20.930;2023-06-14T07:24:28;100446.81;;;16.68;94.22
30724;BME280;17473;52.286;20.930;2023-06-14T07:26:56;100448.19;;;17.23;91.18
30724;BME280;17473;52.286;20.930;2023-06-14T07:29:23;100459.84;;;17.34;90.36
30724;BME280;17473;52.286;20.930;2023-06-14T07:31:50;100458.94;;;17.29;90.20
30724;BME280;17473;52.286;20.930;2023-06-14T07:34:17;100460.72;;;17.33;90.14
30724;BME280;17473;52.286;20.930;2023-06-14T07:36:44;100456.38;;;17.43;89.21
30724;BME280;17473;52.286;20.930;2023-06-14T07:39:12;100459.94;;;17.50;87.20
30724;BME280;17473;52.286;20.930;2023-06-14T07:41:39;100460.78;;;17.41;89.29
30724;BME280;17473;52.286;20.930;2023-06-14T07:44:06;100466.28;;;17.67;88.71
30724;BME280;17473;52.286;20.930;2023-06-14T07:46:33;100463.66;;;17.77;87.90
30724;BME280;17473;52.286;20.930;2023-06-14T07:49:01;100474.41;;;17.83;88.12
30724;BME280;17473;52.286;20.930;2023-06-14T07:51:28;100470.84;;;17.86;87.09
30724;BME280;17473;52.286;20.930;2023-06-14T07:53:56;100470.00;;;17.93;85.69
30724;BME280;17473;52.286;20.930;2023-06-14T07:56:23;100469.28;;;18.31;83.79
30724;BME280;17473;52.286;20.930;2023-06-14T07:58:50;100463.94;;;18.34;83.50
30724;BME280;17473;52.286;20.930;2023-06-14T08:01:17;100471.06;;;18.29;81.80
30724;BME280;17473;52.286;20.930;2023-06-14T08:03:46;100479.22;;;18.85;77.52
30724;BME280;17473;52.286;20.930;2023-06-14T08:06:13;100471.16;;;18.60;79.87
30724;BME280;17473;52.286;20.930;2023-06-14T08:08:40;100468.44;;;18.41;81.74
30724;BME280;17473;52.286;20.930;2023-06-14T08:11:07;100479.13;;;18.49;80.27
30724;BME280;17473;52.286;20.930;2023-06-14T08:13:35;100472.91;;;18.53;80.13
30724;BME280;17473;52.286;20.930;2023-06-14T08:16:02;100472.94;;;18.70;79.60
30724;BME280;17473;52.286;20.930;2023-06-14T08:18:31;100475.63;;;18.78;79.03
30724;BME280;17473;52.286;20.930;2023-06-14T08:20:58;100480.16;;;19.12;77.54
30724;BME280;17473;52.286;20.930;2023-06-14T08:23:26;100481.91;;;18.85;78.21
30724;BME280;17473;52.286;20.930;2023-06-14T08:25:53;100479.25;;;19.06;77.28
30724;BME280;17473;52.286;20.930;2023-06-14T08:28:21;100489.91;;;18.91;77.86
30724;BME280;17473;52.286;20.930;2023-06-14T08:30:48;100491.66;;;18.67;78.53
30724;BME280;17473;52.286;20.930;2023-06-14T08:33:15;100482.75;;;18.81;77.95
30724;BME280;17473;52.286;20.930;2023-06-14T08:35:43;100485.44;;;18.70;77.75
30724;BME280;17473;52.286;20.930;2023-06-14T08:38:11;100489.06;;;19.06;77.08
30724;BME280;17473;52.286;20.930;2023-06-14T08:40:41;100488.19;;;19.13;76.55
30724;BME280;17473;52.286;20.930;2023-06-14T08:43:09;100485.50;;;19.12;77.22
30724;BME280;17473;52.286;20.930;2023-06-14T08:45:36;100489.06;;;19.06;77.28
30724;BME280;17473;52.286;20.930;2023-06-14T08:48:04;100481.94;;;19.11;77.01
30724;BME280;17473;52.286;20.930;2023-06-14T08:50:32;100477.47;;;19.53;75.09
30724;BME280;17473;52.286;20.930;2023-06-14T08:53:02;100482.75;;;19.77;74.46
30724;BME280;17473;52.286;20.930;2023-06-14T08:55:31;100469.34;;;19.97;73.58
30724;BME280;17473;52.286;20.930;2023-06-14T08:58:03;100468.34;;;20.21;72.16
30724;BME280;17473;52.286;20.930;2023-06-14T09:00:32;100470.53;;;21.06;68.91
30724;BME280;17473;52.286;20.930;2023-06-14T09:03:01;100467.53;;;22.25;63.99
30724;BME280;17473;52.286;20.930;2023-06-14T09:05:28;100460.16;;;22.42;63.28
30724;BME280;17473;52.286;20.930;2023-06-14T09:07:56;100466.06;;;22.66;60.02
30724;BME280;17473;52.286;20.930;2023-06-14T09:10:31;100457.44;;;22.45;58.45
30724;BME280;17473;52.286;20.930;2023-06-14T09:13:01;100464.50;;;23.09;56.76
30724;BME280;17473;52.286;20.930;2023-06-14T09:15:30;100455.56;;;23.08;56.59
30724;BME280;17473;52.286;20.930;2023-06-14T09:18:01;100460.78;;;23.16;56.03
30724;BME280;17473;52.286;20.930;2023-06-14T09:20:30;100463.47;;;23.16;56.80
30724;BME280;17473;52.286;20.930;2023-06-14T09:22:59;100473.56;;;23.03;56.09
30724;BME280;17473;52.286;20.930;2023-06-14T09:25:27;100462.25;;;22.81;56.75
30724;BME280;17473;52.286;20.930;2023-06-14T09:28:09;100467.09;;;22.59;57.84
30724;BME280;17473;52.286;20.930;2023-06-14T09:30:39;100456.91;;;22.14;58.54
30724;BME280;17473;52.286;20.930;2023-06-14T09:33:07;100463.91;;;21.46;60.70
30724;BME280;17473;52.286;20.930;2023-06-14T09:35:35;100465.03;;;22.09;59.27
30724;BME280;17473;52.286;20.930;2023-06-14T09:38:03;100468.22;;;21.67;61.30
30724;BME280;17473;52.286;20.930;2023-06-14T09:40:35;100453.97;;;21.53;61.30
30724;BME280;17473;52.286;20.930;2023-06-14T09:43:07;100463.09;;;21.36;62.13
30724;BME280;17473;52.286;20.930;2023-06-14T09:45:38;100453.50;;;21.09;60.06
30724;BME280;17473;52.286;20.930;2023-06-14T09:48:12;100459.78;;;21.05;58.84
30724;BME280;17473;52.286;20.930;2023-06-14T09:50:50;100465.19;;;21.03;57.99
30724;BME280;17473;52.286;20.930;2023-06-14T09:53:21;100471.28;;;21.24;57.33
30724;BME280;17473;52.286;20.930;2023-06-14T09:55:50;100470.19;;;21.43;56.88
30724;BME280;17473;52.286;20.930;2023-06-14T09:58:20;100470.47;;;21.16;58.93
30724;BME280;17473;52.286;20.930;2023-06-14T10:00:50;100474.06;;;21.08;60.70
30724;BME280;17473;52.286;20.930;2023-06-14T10:03:28;100469.47;;;21.27;59.38
30724;BME280;17473;52.286;20.930;2023-06-14T10:06:10;100461.28;;;21.41;58.63
30724;BME280;17473;52.286;20.930;2023-06-14T10:08:38;100470.94;;;21.56;57.33
30724;BME280;17473;52.286;20.930;2023-06-14T10:11:06;100471.16;;;21.38;57.34
30724;BME280;17473;52.286;20.930;2023-06-14T10:13:34;100466.59;;;21.45;57.69
30724;BME280;17473;52.286;20.930;2023-06-14T10:19:32;100462.16;;;21.39;57.77
30724;BME280;17473;52.286;20.930;2023-06-14T10:22:10;100458.22;;;21.77;57.59
30724;BME280;17473;52.286;20.930;2023-06-14T10:24:44;100471.38;;;22.02;55.17
30724;BME280;17473;52.286;20.930;2023-06-14T10:27:15;100468.06;;;21.81;55.55
30724;BME280;17473;52.286;20.930;2023-06-14T10:32:24;100459.47;;;22.23;55.35
30724;BME280;17473;52.286;20.930;2023-06-14T10:34:58;100463.69;;;22.46;53.65
30724;BME280;17473;52.286;20.930;2023-06-14T10:37:26;100477.03;;;21.80;52.61
30724;BME280;17473;52.286;20.930;2023-06-14T10:39:53;100464.75;;;21.48;53.32
30724;BME280;17473;52.286;20.930;2023-06-14T10:42:20;100463.09;;;21.36;53.70
30724;BME280;17473;52.286;20.930;2023-06-14T10:44:51;100465.13;;;22.01;51.86
30724;BME280;17473;52.286;20.930;2023-06-14T10:47:34;100461.97;;;22.39;49.56
30724;BME280;17473;52.286;20.930;2023-06-14T10:50:04;100457.03;;;22.03;51.54
30724;BME280;17473;52.286;20.930;2023-06-14T10:52:38;100453.56;;;21.93;50.20
30724;BME280;17473;52.286;20.930;2023-06-14T10:55:12;100444.50;;;22.03;49.27
30724;BME280;17473;52.286;20.930;2023-06-14T10:57:52;100442.72;;;22.02;50.06
30724;BME280;17473;52.286;20.930;2023-06-14T11:00:24;100458.53;;;21.45;49.78
30724;BME280;17473;52.286;20.930;2023-06-14T11:05:48;100450.38;;;21.60;51.26
30724;BME280;17473;52.286;20.930;2023-06-14T11:11:14;100450.53;;;21.40;49.44
30724;BME280;17473;52.286;20.930;2023-06-14T11:13:45;100447.19;;;21.16;49.89
30724;BME280;17473;52.286;20.930;2023-06-14T11:16:14;100445.16;;;21.41;50.09
30724;BME280;17473;52.286;20.930;2023-06-14T11:18:43;100442.66;;;21.23;51.13
30724;BME280;17473;52.286;20.930;2023-06-14T11:21:11;100444.44;;;21.22;52.35
30724;BME280;17473;52.286;20.930;2023-06-14T11:23:38;100435.28;;;21.43;51.22
30724;BME280;17473;52.286;20.930;2023-06-14T11:26:05;100441.03;;;21.00;51.90
30724;BME280;17473;52.286;20.930;2023-06-14T11:28:37;100435.81;;;20.82;52.07
30724;BME280;17473;52.286;20.930;2023-06-14T11:31:04;100437.72;;;20.62;52.60
30724;BME280;17473;52.286;20.930;2023-06-14T11:33:32;100432.31;;;20.67;52.28
30724;BME280;17473;52.286;20.930;2023-06-14T11:36:03;100441.16;;;20.86;51.63
30724;BME280;17473;52.286;20.930;2023-06-14T11:38:36;100444.84;;;20.65;51.22
30724;BME280;17473;52.286;20.930;2023-06-14T11:41:04;100443.66;;;21.11;49.55
30724;BME280;17473;52.286;20.930;2023-06-14T11:43:31;100446.34;;;21.11;49.25
30724;BME280;17473;52.286;20.930;2023-06-14T11:46:01;100429.03;;;21.40;50.69
30724;BME280;17473;52.286;20.930;2023-06-14T11:48:42;100440.44;;;21.68;49.17
30724;BME280;17473;52.286;20.930;2023-06-14T11:51:09;100438.53;;;21.78;49.00
30724;BME280;17473;52.286;20.930;2023-06-14T11:53:38;100439.91;;;22.10;47.72
30724;BME280;17473;52.286;20.930;2023-06-14T11:56:05;100446.81;;;21.58;46.42
30724;BME280;17473;52.286;20.930;2023-06-14T11:58:33;100433.31;;;21.64;47.83
30724;BME280;17473;52.286;20.930;2023-06-14T12:01:00;100437.84;;;22.31;47.53
30724;BME280;17473;52.286;20.930;2023-06-14T12:03:29;100429.22;;;22.05;46.87
30724;BME280;17473;52.286;20.930;2023-06-14T12:06:08;100434.56;;;22.09;47.52
30724;BME280;17473;52.286;20.930;2023-06-14T12:08:37;100434.25;;;21.60;44.96
30724;BME280;17473;52.286;20.930;2023-06-14T12:11:12;100445.47;;;21.95;44.53
30724;BME280;17473;52.286;20.930;2023-06-14T12:13:43;100429.81;;;21.54;46.26
30724;BME280;17473;52.286;20.930;2023-06-14T12:16:12;100435.97;;;21.66;45.89
30724;BME280;17473;52.286;20.930;2023-06-14T12:18:40;100429.44;;;21.88;46.48
30724;BME280;17473;52.286;20.930;2023-06-14T12:21:09;100434.66;;;21.12;47.84
30724;BME280;17473;52.286;20.930;2023-06-14T12:23:46;100424.81;;;21.17;48.99
30724;BME280;17473;52.286;20.930;2023-06-14T12:26:18;100424.56;;;21.40;49.11
30724;BME280;17473;52.286;20.930;2023-06-14T12:28:47;100431.00;;;21.24;49.28
30724;BME280;17473;52.286;20.930;2023-06-14T12:31:15;100430.38;;;20.92;49.08
30724;BME280;17473;52.286;20.930;2023-06-14T12:33:43;100435.88;;;20.71;47.37
30724;BME280;17473;52.286;20.930;2023-06-14T12:36:13;100424.44;;;20.47;48.88
30724;BME280;17473;52.286;20.930;2023-06-14T12:38:40;100422.72;;;20.32;51.10
30724;BME280;17473;52.286;20.930;2023-06-14T12:41:08;100422.56;;;20.60;50.75
30724;BME280;17473;52.286;20.930;2023-06-14T12:43:35;100427.97;;;20.49;50.02
30724;BME280;17473;52.286;20.930;2023-06-14T12:46:02;100431.59;;;20.42;49.40
30724;BME280;17473;52.286;20.930;2023-06-14T12:48:29;100417.16;;;20.58;50.83
30724;BME280;17473;52.286;20.930;2023-06-14T12:50:58;100414.06;;;21.17;50.36
30724;BME280;17473;52.286;20.930;2023-06-14T12:53:25;100414.16;;;21.05;50.81
30724;BME280;17473;52.286;20.930;2023-06-14T12:55:52;100412.22;;;21.24;49.89